createdAt,value
2023-04-11T00:00:01.687Z,85
2023-04-11T00:01:08.785Z,85
2023-04-11T00:02:15.385Z,85
2023-04-11T00:03:22.964Z,85
2023-04-11T00:04:29.860Z,85
2023-04-11T00:05:36.668Z,85
2023-04-11T00:06:43.806Z,85
2023-04-11T00:07:50.294Z,85
2023-04-11T00:08:57.803Z,85
2023-04-11T00:10:04.584Z,85
2023-04-11T00:11:11.668Z,85
2023-04-11T00:12:18.835Z,85
2023-04-11T00:13:25.398Z,85
2023-04-11T00:14:32.412Z,85
2023-04-11T00:14:32.496Z,85
2023-04-11T00:15:39.587Z,85
2023-04-11T00:16:46.732Z,85
2023-04-11T00:17:53.803Z,85
2023-04-11T00:19:00.424Z,85
2023-04-11T00:20:07.438Z,85
2023-04-11T00:21:14.650Z,85
2023-04-11T00:22:21.715Z,85
2023-04-11T00:23:28.799Z,85
2023-04-11T00:24:35.340Z,85
2023-04-11T00:25:42.426Z,85
2023-04-11T00:26:49.598Z,85
2023-04-11T00:27:56.768Z,85
2023-04-11T00:29:03.813Z,85
2023-04-11T00:30:10.347Z,85
2023-04-11T00:31:17.525Z,85
2023-04-11T00:32:24.552Z,85
2023-04-11T00:33:31.660Z,85
2023-04-11T00:34:38.774Z,85
2023-04-11T00:35:45.380Z,85
2023-04-11T00:36:52.559Z,85
2023-04-11T00:39:06.932Z,85
2023-04-11T00:40:13.784Z,85
2023-04-11T00:41:20.357Z,85
2023-04-11T00:42:27.470Z,85
2023-04-11T00:44:41.708Z,85
2023-04-11T00:45:48.883Z,85
2023-04-11T00:46:55.427Z,84
2023-04-11T00:48:02.496Z,84
2023-04-11T00:49:09.607Z,85
2023-04-11T00:50:16.687Z,85
2023-04-11T00:51:23.786Z,85
2023-04-11T00:52:30.460Z,85
2023-04-11T00:53:37.569Z,85
2023-04-11T00:54:44.604Z,85
2023-04-11T00:55:51.690Z,85
2023-04-11T00:56:58.822Z,85
2023-04-11T00:58:05.408Z,85
2023-04-11T00:59:12.496Z,85
2023-04-11T01:00:19.635Z,85
2023-04-11T01:01:26.804Z,85
2023-04-11T01:02:33.916Z,85
2023-04-11T01:03:40.506Z,85
2023-04-11T01:04:47.638Z,85
2023-04-11T01:05:54.633Z,85
2023-04-11T01:07:01.675Z,85
2023-04-11T01:08:08.333Z,85
2023-04-11T01:09:15.402Z,85
2023-04-11T01:10:22.558Z,85
2023-04-11T01:11:29.649Z,85
2023-04-11T01:12:36.756Z,85
2023-04-11T01:13:43.387Z,85
2023-04-11T01:14:50.518Z,85
2023-04-11T01:15:57.546Z,85
2023-04-11T01:17:04.756Z,85
2023-04-11T01:18:11.716Z,85
2023-04-11T01:19:18.312Z,85
2023-04-11T01:20:25.453Z,85
2023-04-11T01:21:32.579Z,85
2023-04-11T01:22:39.633Z,85
2023-04-11T01:23:46.814Z,85
2023-04-11T01:24:53.394Z,85
2023-04-11T01:26:00.472Z,85
2023-04-11T01:27:07.574Z,86
2023-04-11T01:28:14.643Z,86
2023-04-11T01:29:22.186Z,86
2023-04-11T01:30:28.555Z,86
2023-04-11T01:31:35.476Z,86
2023-04-11T01:32:42.591Z,86
2023-04-11T01:33:49.700Z,86
2023-04-11T01:34:56.749Z,86
2023-04-11T01:36:03.368Z,86
2023-04-11T01:37:10.467Z,86
2023-04-11T01:38:17.546Z,86
2023-04-11T01:39:24.668Z,86
2023-04-11T01:40:31.773Z,86
2023-04-11T01:41:38.997Z,86
2023-04-11T01:42:45.524Z,86
2023-04-11T01:43:52.598Z,86
2023-04-11T01:44:59.642Z,86
2023-04-11T01:46:06.805Z,86
2023-04-11T01:48:20.590Z,86
2023-04-11T01:49:27.557Z,86
2023-04-11T01:50:34.672Z,86
2023-04-11T01:51:44.571Z,86
2023-04-11T01:52:48.330Z,86
2023-04-11T01:53:55.523Z,86
2023-04-11T01:55:02.575Z,86
2023-04-11T01:56:09.633Z,86
2023-04-11T01:57:16.839Z,86
2023-04-11T01:58:23.355Z,86
2023-04-11T01:59:30.482Z,86
2023-04-11T02:00:37.581Z,86
2023-04-11T02:01:44.818Z,86
2023-04-11T02:02:51.986Z,86
2023-04-11T02:03:58.999Z,86
2023-04-11T02:05:05.560Z,86
2023-04-11T02:07:19.674Z,86
2023-04-11T02:08:26.840Z,86
2023-04-11T02:09:33.372Z,86
2023-04-11T02:10:40.475Z,86
2023-04-11T02:11:47.610Z,86
2023-04-11T02:12:54.701Z,86
2023-04-11T02:14:01.892Z,86
2023-04-11T02:15:08.420Z,86
2023-04-11T02:16:15.738Z,86
2023-04-11T02:17:22.645Z,86
2023-04-11T02:18:29.240Z,86
2023-04-11T02:18:29.755Z,86
2023-04-11T02:19:36.853Z,86
2023-04-11T02:20:43.383Z,86
2023-04-11T02:21:50.525Z,86
2023-04-11T02:22:57.594Z,86
2023-04-11T02:24:04.741Z,86
2023-04-11T02:25:11.846Z,86
2023-04-11T02:26:18.442Z,86
2023-04-11T02:27:25.548Z,86
2023-04-11T02:28:32.652Z,86
2023-04-11T02:29:39.741Z,86
2023-04-11T02:30:46.915Z,86
2023-04-11T02:31:53.485Z,86
2023-04-11T02:33:00.561Z,86
2023-04-11T02:34:07.666Z,86
2023-04-11T02:35:14.732Z,86
2023-04-11T02:36:21.294Z,86
2023-04-11T02:37:28.420Z,86
2023-04-11T02:38:35.584Z,85
2023-04-11T02:39:42.613Z,85
2023-04-11T02:40:49.741Z,85
2023-04-11T02:41:56.369Z,85
2023-04-11T02:43:03.467Z,85
2023-04-11T02:44:10.635Z,85
2023-04-11T02:45:17.684Z,85
2023-04-11T02:46:24.779Z,85
2023-04-11T02:47:31.335Z,85
2023-04-11T02:48:38.483Z,85
2023-04-11T02:49:45.559Z,85
2023-04-11T02:51:59.766Z,85
2023-04-11T02:53:06.984Z,85
2023-04-11T02:54:13.507Z,85
2023-04-11T02:55:20.505Z,85
2023-04-11T02:56:27.694Z,85
2023-04-11T02:57:34.724Z,85
2023-04-11T02:58:41.360Z,85
2023-04-11T02:59:48.486Z,85
2023-04-11T03:00:55.542Z,85
2023-04-11T03:02:02.787Z,85
2023-04-11T03:03:09.997Z,85
2023-04-11T03:04:16.484Z,85
2023-04-11T03:05:23.496Z,85
2023-04-11T03:06:30.527Z,85
2023-04-11T03:07:37.723Z,85
2023-04-11T03:08:44.831Z,85
2023-04-11T03:09:51.392Z,85
2023-04-11T03:10:58.511Z,85
2023-04-11T03:12:05.598Z,85
2023-04-11T03:13:12.669Z,85
2023-04-11T03:14:19.879Z,85
2023-04-11T03:15:26.941Z,85
2023-04-11T03:16:33.511Z,85
2023-04-11T03:17:40.697Z,85
2023-04-11T03:18:47.722Z,85
2023-04-11T03:19:54.762Z,85
2023-04-11T03:21:01.566Z,85
2023-04-11T03:22:08.527Z,85
2023-04-11T03:23:15.630Z,85
2023-04-11T03:24:22.737Z,85
2023-04-11T03:25:29.839Z,85
2023-04-11T03:26:36.405Z,85
2023-04-11T03:27:43.468Z,85
2023-04-11T03:28:50.593Z,85
2023-04-11T03:29:57.735Z,85
2023-04-11T03:31:04.971Z,85
2023-04-11T03:32:11.514Z,85
2023-04-11T03:33:18.550Z,85
2023-04-11T03:35:32.752Z,85
2023-04-11T03:36:39.835Z,85
2023-04-11T03:37:46.401Z,85
2023-04-11T03:38:53.733Z,85
2023-04-11T03:40:00.586Z,84
2023-04-11T03:41:07.774Z,84
2023-04-11T03:42:14.912Z,84
2023-04-11T03:43:21.373Z,84
2023-04-11T03:44:28.614Z,84
2023-04-11T03:45:35.592Z,84
2023-04-11T03:46:42.828Z,84
2023-04-11T03:47:49.410Z,84
2023-04-11T03:48:56.717Z,84
2023-04-11T03:50:03.485Z,84
2023-04-11T03:51:10.718Z,84
2023-04-11T03:52:17.812Z,84
2023-04-11T03:53:24.285Z,84
2023-04-11T03:55:38.502Z,84
2023-04-11T03:56:45.631Z,84
2023-04-11T03:57:52.794Z,84
2023-04-11T03:58:59.351Z,84
2023-04-11T04:00:06.438Z,84
2023-04-11T04:01:13.545Z,84
2023-04-11T04:02:20.730Z,84
2023-04-11T04:03:27.962Z,84
2023-04-11T04:04:34.957Z,84
2023-04-11T04:05:41.396Z,84
2023-04-11T04:06:48.562Z,84
2023-04-11T04:07:56.172Z,84
2023-04-11T04:09:02.747Z,84
2023-04-11T04:10:09.357Z,84
2023-04-11T04:11:16.434Z,84
2023-04-11T04:12:23.516Z,84
2023-04-11T04:13:30.653Z,84
2023-04-11T04:14:37.816Z,84
2023-04-11T04:15:44.371Z,84
2023-04-11T04:16:51.552Z,84
2023-04-11T04:17:58.637Z,84
2023-04-11T04:19:05.802Z,84
2023-04-11T04:20:12.767Z,84
2023-04-11T04:21:19.396Z,84
2023-04-11T04:22:26.473Z,84
2023-04-11T04:23:33.580Z,84
2023-04-11T04:24:40.690Z,84
2023-04-11T04:25:47.767Z,84
2023-04-11T04:26:54.348Z,84
2023-04-11T04:28:01.433Z,84
2023-04-11T04:29:08.633Z,84
2023-04-11T04:30:15.857Z,84
2023-04-11T04:31:22.830Z,84
2023-04-11T04:32:29.395Z,84
2023-04-11T04:33:36.459Z,84
2023-04-11T04:34:43.553Z,84
2023-04-11T04:35:50.721Z,84
2023-04-11T04:36:57.840Z,84
2023-04-11T04:38:04.387Z,84
2023-04-11T04:39:11.557Z,84
2023-04-11T04:40:18.636Z,84
2023-04-11T04:41:25.705Z,84
2023-04-11T04:42:32.787Z,84
2023-04-11T04:43:39.392Z,84
2023-04-11T04:44:46.475Z,84
2023-04-11T04:45:53.687Z,84
2023-04-11T04:47:00.723Z,84
2023-04-11T04:48:07.901Z,84
2023-04-11T04:49:14.476Z,84
2023-04-11T04:50:21.489Z,84
2023-04-11T04:51:28.644Z,84
2023-04-11T04:52:35.826Z,84
2023-04-11T04:53:42.796Z,84
2023-04-11T04:54:49.398Z,84
2023-04-11T04:55:56.496Z,84
2023-04-11T04:57:03.594Z,84
2023-04-11T04:59:17.908Z,84
2023-04-11T05:00:24.437Z,84
2023-04-11T05:01:31.582Z,84
2023-04-11T05:03:45.878Z,84
2023-04-11T05:04:52.812Z,84
2023-04-11T05:05:59.438Z,84
2023-04-11T05:07:06.629Z,84
2023-04-11T05:08:13.587Z,83
2023-04-11T05:09:20.751Z,83
2023-04-11T05:10:27.874Z,83
2023-04-11T05:11:34.379Z,83
2023-04-11T05:12:41.565Z,83
2023-04-11T05:13:48.713Z,83
2023-04-11T05:14:55.793Z,83
2023-04-11T05:16:02.850Z,83
2023-04-11T05:17:09.466Z,83
2023-04-11T05:18:16.552Z,83
2023-04-11T05:19:23.621Z,83
2023-04-11T05:20:30.733Z,83
2023-04-11T05:21:37.351Z,83
2023-04-11T05:22:44.431Z,83
2023-04-11T05:23:51.590Z,83
2023-04-11T05:24:58.631Z,83
2023-04-11T05:26:05.786Z,83
2023-04-11T05:27:12.330Z,83
2023-04-11T05:28:19.469Z,83
2023-04-11T05:29:26.538Z,83
2023-04-11T05:30:33.652Z,83
2023-04-11T05:31:40.755Z,83
2023-04-11T05:32:48.018Z,83
2023-04-11T05:33:55.022Z,83
2023-04-11T05:35:01.564Z,83
2023-04-11T05:36:08.730Z,83
2023-04-11T05:37:15.782Z,83
2023-04-11T05:38:22.884Z,83
2023-04-11T05:39:29.518Z,83
2023-04-11T05:40:36.554Z,83
2023-04-11T05:41:44.627Z,83
2023-04-11T05:42:50.786Z,83
2023-04-11T05:43:57.821Z,83
2023-04-11T05:45:04.470Z,83
2023-04-11T05:46:11.673Z,83
2023-04-11T05:47:18.735Z,83
2023-04-11T05:48:25.823Z,83
2023-04-11T05:49:32.329Z,83
2023-04-11T05:50:39.513Z,83
2023-04-11T05:51:46.594Z,83
2023-04-11T05:52:53.705Z,83
2023-04-11T05:54:00.834Z,83
2023-04-11T05:55:07.427Z,83
2023-04-11T05:56:14.503Z,83
2023-04-11T05:57:21.624Z,83
2023-04-11T05:58:28.682Z,83
2023-04-11T05:59:35.833Z,83
2023-04-11T06:00:42.888Z,83
2023-04-11T06:02:56.205Z,83
2023-04-11T06:04:03.868Z,83
2023-04-11T06:05:10.943Z,83
2023-04-11T06:06:17.426Z,83
2023-04-11T06:07:24.468Z,83
2023-04-11T06:08:31.632Z,83
2023-04-11T06:09:38.698Z,83
2023-04-11T06:10:45.831Z,83
2023-04-11T06:11:52.380Z,83
2023-04-11T06:12:59.492Z,83
2023-04-11T06:14:06.674Z,83
2023-04-11T06:15:13.708Z,83
2023-04-11T06:16:20.896Z,83
2023-04-11T06:17:27.472Z,83
2023-04-11T06:18:34.509Z,83
2023-04-11T06:19:41.580Z,84
2023-04-11T06:20:48.741Z,84
2023-04-11T06:21:55.861Z,84
2023-04-11T06:23:02.412Z,84
2023-04-11T06:24:09.612Z,84
2023-04-11T06:25:16.619Z,84
2023-04-11T06:26:23.723Z,84
2023-04-11T06:27:30.793Z,84
2023-04-11T06:28:37.432Z,84
2023-04-11T06:29:44.555Z,84
2023-04-11T06:31:58.880Z,84
2023-04-11T06:33:05.894Z,84
2023-04-11T06:34:12.510Z,84
2023-04-11T06:35:19.497Z,84
2023-04-11T06:36:26.655Z,84
2023-04-11T06:37:33.721Z,84
2023-04-11T06:38:40.904Z,84
2023-04-11T06:39:47.432Z,84
2023-04-11T06:40:54.543Z,84
2023-04-11T06:42:01.651Z,84
2023-04-11T06:43:08.754Z,84
2023-04-11T06:44:15.496Z,84
2023-04-11T06:45:22.479Z,84
2023-04-11T06:46:29.560Z,84
2023-04-11T06:47:36.696Z,84
2023-04-11T06:48:43.766Z,84
2023-04-11T06:49:50.907Z,84
2023-04-11T06:50:57.520Z,84
2023-04-11T06:52:04.563Z,84
2023-04-11T06:53:11.621Z,84
2023-04-11T06:54:18.808Z,84
2023-04-11T06:55:25.417Z,84
2023-04-11T06:56:32.457Z,84
2023-04-11T06:57:39.629Z,84
2023-04-11T06:58:46.702Z,84
2023-04-11T06:59:53.757Z,84
2023-04-11T07:01:00.381Z,85
2023-04-11T07:02:07.557Z,85
2023-04-11T07:03:14.784Z,85
2023-04-11T07:04:21.283Z,84
2023-04-11T07:06:35.394Z,84
2023-04-11T07:07:42.466Z,85
2023-04-11T07:08:49.713Z,84
2023-04-11T07:09:56.679Z,84
2023-04-11T07:11:03.807Z,84
2023-04-11T07:12:10.940Z,84
2023-04-11T07:13:17.533Z,84
2023-04-11T07:14:24.642Z,84
2023-04-11T07:15:31.690Z,84
2023-04-11T07:16:38.984Z,84
2023-04-11T07:17:45.469Z,84
2023-04-11T07:18:52.490Z,84
2023-04-11T07:19:59.615Z,84
2023-04-11T07:21:06.710Z,84
2023-04-11T07:22:13.841Z,84
2023-04-11T07:23:22.392Z,84
2023-04-11T07:24:27.579Z,84
2023-04-11T07:25:34.102Z,84
2023-04-11T07:26:41.715Z,84
2023-04-11T07:27:48.834Z,84
2023-04-11T07:28:55.446Z,84
2023-04-11T07:30:02.525Z,84
2023-04-11T07:31:09.682Z,84
2023-04-11T07:32:16.739Z,84
2023-04-11T07:33:23.829Z,84
2023-04-11T07:34:30.996Z,84
2023-04-11T07:35:37.587Z,83
2023-04-11T07:36:44.577Z,83
2023-04-11T07:37:51.740Z,83
2023-04-11T07:38:58.869Z,83
2023-04-11T07:40:05.439Z,83
2023-04-11T07:41:12.502Z,83
2023-04-11T07:42:19.635Z,83
2023-04-11T07:43:26.729Z,83
2023-04-11T07:44:33.926Z,83
2023-04-11T07:45:40.488Z,82
2023-04-11T07:46:47.526Z,82
2023-04-11T07:47:54.752Z,82
2023-04-11T07:49:01.717Z,82
2023-04-11T07:50:08.851Z,82
2023-04-11T07:51:15.464Z,82
2023-04-11T07:52:22.503Z,81
2023-04-11T07:53:29.711Z,81
2023-04-11T07:54:36.799Z,82
2023-04-11T07:55:43.809Z,82
2023-04-11T07:56:51.013Z,82
2023-04-11T07:57:57.548Z,82
2023-04-11T08:00:11.904Z,82
2023-04-11T08:01:19.218Z,83
2023-04-11T08:02:25.627Z,83
2023-04-11T08:03:32.850Z,83
2023-04-11T08:04:39.875Z,83
2023-04-11T08:05:46.742Z,83
2023-04-11T08:08:00.479Z,83
2023-04-11T08:10:14.687Z,84
2023-04-11T08:11:21.757Z,84
2023-04-11T08:12:31.411Z,84
2023-04-11T08:13:35.470Z,84
2023-04-11T08:14:42.576Z,84
2023-04-11T08:15:49.661Z,84
2023-04-11T08:16:56.973Z,84
2023-04-11T08:18:03.421Z,84
2023-04-11T08:19:10.429Z,84
2023-04-11T08:20:17.559Z,84
2023-04-11T08:21:25.723Z,84
2023-04-11T08:22:31.754Z,84
2023-04-11T08:23:38.371Z,84
2023-04-11T08:24:45.495Z,84
2023-04-11T08:25:52.557Z,84
2023-04-11T08:26:59.845Z,84
2023-04-11T08:28:06.867Z,84
2023-04-11T08:29:13.384Z,84
2023-04-11T08:30:20.577Z,84
2023-04-11T08:31:27.659Z,84
2023-04-11T08:32:34.811Z,84
2023-04-11T08:33:41.798Z,84
2023-04-11T08:34:48.764Z,84
2023-04-11T08:35:55.675Z,84
2023-04-11T08:37:02.587Z,84
2023-04-11T08:38:09.735Z,84
2023-04-11T08:39:16.830Z,84
2023-04-11T08:40:24.562Z,84
2023-04-11T08:41:30.599Z,84
2023-04-11T08:42:37.612Z,84
2023-04-11T08:43:44.745Z,84
2023-04-11T08:44:51.886Z,84
2023-04-11T08:45:58.480Z,84
2023-04-11T08:47:05.528Z,84
2023-04-11T08:49:19.758Z,84
2023-04-11T08:50:26.928Z,84
2023-04-11T08:51:33.411Z,84
2023-04-11T08:52:40.513Z,84
2023-04-11T08:53:47.654Z,84
2023-04-11T08:54:54.909Z,85
2023-04-11T08:56:01.800Z,85
2023-04-11T08:57:08.369Z,85
2023-04-11T08:58:15.636Z,85
2023-04-11T08:59:22.589Z,15
2023-04-11T09:00:29.762Z,85
2023-04-11T09:01:37.007Z,85
2023-04-11T09:02:43.485Z,85
2023-04-11T09:03:50.490Z,85
2023-04-11T09:04:57.940Z,85
2023-04-11T09:06:04.771Z,85
2023-04-11T09:07:11.846Z,85
2023-04-11T09:08:18.432Z,85
2023-04-11T09:09:25.632Z,85
2023-04-11T09:10:32.655Z,85
2023-04-11T09:11:39.786Z,85
2023-04-11T09:13:53.539Z,85
2023-04-11T09:15:00.602Z,85
2023-04-11T09:16:07.730Z,85
2023-04-11T09:17:14.785Z,85
2023-04-11T09:18:21.874Z,86
2023-04-11T09:20:35.580Z,85
2023-04-11T09:21:44.704Z,86
2023-04-11T09:22:49.784Z,85
2023-04-11T09:23:56.592Z,85
2023-04-11T09:25:03.501Z,86
2023-04-11T09:26:10.585Z,85
2023-04-11T09:28:24.833Z,85
2023-04-11T09:30:38.494Z,86
2023-04-11T09:31:45.659Z,85
2023-04-11T09:32:52.813Z,85
2023-04-11T09:34:00.127Z,85
2023-04-11T09:35:06.950Z,85
2023-04-11T09:36:13.494Z,85
2023-04-11T09:37:20.566Z,85
2023-04-11T09:38:27.696Z,85
2023-04-11T09:39:34.798Z,85
2023-04-11T09:40:41.898Z,86
2023-04-11T09:41:48.574Z,86
2023-04-11T09:42:55.108Z,86
2023-04-11T09:42:55.595Z,86
2023-04-11T09:44:02.722Z,86
2023-04-11T09:45:09.885Z,86
2023-04-11T09:46:16.953Z,86
2023-04-11T09:47:23.505Z,86
2023-04-11T09:48:45.492Z,85
2023-04-11T09:49:37.718Z,85
2023-04-11T09:50:44.308Z,85
2023-04-11T09:51:51.913Z,85
2023-04-11T09:52:59.410Z,85
2023-04-11T09:54:06.267Z,85
2023-04-11T09:55:12.161Z,85
2023-04-11T09:56:19.913Z,86
2023-04-11T09:57:26.491Z,86
2023-04-11T09:58:33.629Z,86
2023-04-11T09:59:40.621Z,87
2023-04-11T10:00:47.733Z,86
2023-04-11T10:01:54.944Z,86
2023-04-11T10:03:02.360Z,86
2023-04-11T10:04:09.683Z,86
2023-04-11T10:05:15.660Z,86
2023-04-11T10:06:22.733Z,86
2023-04-11T10:07:29.891Z,85
2023-04-11T10:08:36.917Z,85
2023-04-11T10:09:43.501Z,85
2023-04-11T10:10:50.615Z,85
2023-04-11T10:11:57.724Z,85
2023-04-11T10:13:04.870Z,85
2023-04-11T10:14:11.473Z,85
2023-04-11T10:15:18.564Z,85
2023-04-11T10:17:32.748Z,85
2023-04-11T10:18:39.853Z,85
2023-04-11T10:19:46.482Z,84
2023-04-11T10:20:53.538Z,84
2023-04-11T10:22:00.626Z,84
2023-04-11T10:23:07.785Z,84
2023-04-11T10:24:17.032Z,84
2023-04-11T10:25:21.411Z,84
2023-04-11T10:26:28.556Z,84
2023-04-11T10:27:35.669Z,84
2023-04-11T10:28:42.727Z,83
2023-04-11T10:29:51.687Z,83
2023-04-11T10:30:56.490Z,83
2023-04-11T10:32:03.563Z,82
2023-04-11T10:33:10.641Z,82
2023-04-11T10:34:17.814Z,82
2023-04-11T10:35:24.932Z,82
2023-04-11T10:36:31.460Z,82
2023-04-11T10:37:38.550Z,82
2023-04-11T10:38:45.671Z,82
2023-04-11T10:39:52.821Z,82
2023-04-11T10:40:59.890Z,81
2023-04-11T10:42:06.492Z,81
2023-04-11T10:43:13.557Z,80
2023-04-11T10:44:20.949Z,80
2023-04-11T10:45:27.826Z,80
2023-04-11T10:46:34.957Z,80
2023-04-11T10:47:41.486Z,80
2023-04-11T10:48:48.566Z,80
2023-04-11T10:49:55.749Z,80
2023-04-11T10:51:02.764Z,80
2023-04-11T10:53:16.494Z,79
2023-04-11T10:54:23.609Z,79
2023-04-11T10:56:37.789Z,79
2023-04-11T10:57:44.896Z,79
2023-04-11T10:58:51.494Z,80
2023-04-11T10:59:58.793Z,80
2023-04-11T11:01:05.711Z,79
2023-04-11T11:02:12.833Z,79
2023-04-11T11:03:20.028Z,78
2023-04-11T11:04:26.623Z,78
2023-04-11T11:05:33.594Z,77
2023-04-11T11:06:47.535Z,78
2023-04-11T11:07:47.793Z,77
2023-04-11T11:08:54.889Z,77
2023-04-11T11:10:01.467Z,76
2023-04-11T11:11:08.601Z,76
2023-04-11T11:12:15.737Z,75
2023-04-11T11:13:22.802Z,75
2023-04-11T11:14:29.996Z,75
2023-04-11T11:15:36.484Z,75
2023-04-11T11:16:44.063Z,76
2023-04-11T11:17:50.794Z,76
2023-04-11T11:18:57.850Z,76
2023-04-11T11:21:16.983Z,75
2023-04-11T11:22:18.647Z,75
2023-04-11T11:23:25.793Z,75
2023-04-11T11:24:32.994Z,75
2023-04-11T11:25:39.430Z,74
2023-04-11T11:26:46.635Z,74
2023-04-11T11:27:53.611Z,73
2023-04-11T11:29:00.713Z,73
2023-04-11T11:30:07.874Z,72
2023-04-11T11:31:14.362Z,72
2023-04-11T11:32:22.544Z,71
2023-04-11T11:33:28.617Z,71
2023-04-11T11:34:35.923Z,71
2023-04-11T11:35:42.818Z,71
2023-04-11T11:36:49.558Z,71
2023-04-11T11:37:56.573Z,71
2023-04-11T11:39:04.801Z,71
2023-04-11T11:40:10.725Z,71
2023-04-11T11:41:17.848Z,71
2023-04-11T11:42:24.975Z,71
2023-04-11T11:43:31.508Z,71
2023-04-11T11:44:38.807Z,71
2023-04-11T11:45:45.873Z,71
2023-04-11T11:46:52.945Z,71
2023-04-11T11:47:59.970Z,71
2023-04-11T11:49:06.596Z,71
2023-04-11T11:50:13.708Z,70
2023-04-11T11:52:27.893Z,70
2023-04-11T11:53:34.447Z,70
2023-04-11T11:54:41.603Z,70
2023-04-11T11:55:48.663Z,70
2023-04-11T11:56:55.792Z,70
2023-04-11T11:58:02.864Z,69
2023-04-11T11:59:09.485Z,69
2023-04-11T12:00:16.605Z,69
2023-04-11T12:01:24.631Z,69
2023-04-11T12:02:30.981Z,69
2023-04-11T12:03:38.119Z,69
2023-04-11T12:04:45.172Z,69
2023-04-11T12:05:51.581Z,69
2023-04-11T12:06:58.695Z,69
2023-04-11T12:08:05.817Z,69
2023-04-11T12:09:12.908Z,69
2023-04-11T12:10:19.479Z,69
2023-04-11T12:11:26.613Z,69
2023-04-11T12:12:33.686Z,69
2023-04-11T12:13:40.809Z,69
2023-04-11T12:14:48.002Z,69
2023-04-11T12:15:54.621Z,69
2023-04-11T12:17:01.569Z,69
2023-04-11T12:18:08.768Z,70
2023-04-11T12:19:15.841Z,70
2023-04-11T12:20:22.881Z,69
2023-04-11T12:21:29.474Z,69
2023-04-11T12:22:36.609Z,69
2023-04-11T12:24:50.807Z,69
2023-04-11T12:25:57.922Z,69
2023-04-11T12:27:07.289Z,69
2023-04-11T12:28:11.584Z,69
2023-04-11T12:29:18.714Z,69
2023-04-11T12:30:27.222Z,69
2023-04-11T12:31:32.973Z,69
2023-04-11T12:32:39.557Z,69
2023-04-11T12:33:46.595Z,69
2023-04-11T12:34:53.696Z,69
2023-04-11T12:36:00.817Z,69
2023-04-11T12:37:07.957Z,69
2023-04-11T12:38:17.505Z,69
2023-04-11T12:39:21.684Z,69
2023-04-11T12:40:28.748Z,69
2023-04-11T12:41:35.782Z,69
2023-04-11T12:42:55.284Z,70
2023-04-11T12:43:49.539Z,70
2023-04-11T12:44:56.675Z,70
2023-04-11T12:46:03.745Z,70
2023-04-11T12:47:10.832Z,70
2023-04-11T12:48:17.961Z,70
2023-04-11T12:49:24.578Z,70
2023-04-11T12:50:31.629Z,70
2023-04-11T12:51:38.782Z,71
2023-04-11T12:52:45.885Z,71
2023-04-11T12:53:52.420Z,70
2023-04-11T12:54:59.565Z,71
2023-04-11T12:56:06.668Z,71
2023-04-11T12:57:13.688Z,71
2023-04-11T12:58:20.877Z,70
2023-04-11T12:59:28.883Z,70
2023-04-11T13:00:35.178Z,70
2023-04-11T13:01:41.770Z,70
2023-04-11T13:02:49.105Z,70
2023-04-11T13:03:56.147Z,70
2023-04-11T13:05:03.115Z,70
2023-04-11T13:06:09.619Z,70
2023-04-11T13:07:16.695Z,70
2023-04-11T13:08:23.733Z,70
2023-04-11T13:09:30.923Z,70
2023-04-11T13:10:37.514Z,70
2023-04-11T13:11:44.561Z,69
2023-04-11T13:12:51.622Z,69
2023-04-11T13:13:58.795Z,69
2023-04-11T13:15:05.923Z,69
2023-04-11T13:16:12.598Z,69
2023-04-11T13:17:19.569Z,69
2023-04-11T13:18:26.728Z,69
2023-04-11T13:19:33.796Z,69
2023-04-11T13:20:40.886Z,69
2023-04-11T13:21:47.551Z,68
2023-04-11T13:22:54.656Z,68
2023-04-11T13:24:01.680Z,69
2023-04-11T13:25:08.806Z,69
2023-04-11T13:36:18.852Z,68
2023-04-11T13:40:46.701Z,67
2023-04-11T13:41:53.826Z,67
2023-04-11T13:43:00.417Z,66
2023-04-11T13:44:07.484Z,66
2023-04-11T13:46:22.303Z,66
2023-04-11T13:47:28.891Z,66
2023-04-11T13:48:35.949Z,66
2023-04-11T13:49:42.463Z,66
2023-04-11T13:50:49.671Z,66
2023-04-11T13:51:56.687Z,66
2023-04-11T13:53:03.785Z,66
2023-04-11T13:54:10.418Z,66
2023-04-11T13:55:17.692Z,65
2023-04-11T13:56:24.590Z,66
2023-04-11T13:57:31.769Z,66
2023-04-11T13:58:38.941Z,66
2023-04-11T14:00:52.573Z,66
2023-04-11T14:01:59.652Z,66
2023-04-11T14:03:06.994Z,66
2023-04-11T14:04:13.922Z,66
2023-04-11T14:05:20.971Z,66
2023-04-11T14:06:27.580Z,66
2023-04-11T14:07:34.621Z,66
2023-04-11T14:08:41.778Z,66
2023-04-11T14:09:48.895Z,66
2023-04-11T14:10:55.431Z,66
2023-04-11T14:12:02.487Z,66
2023-04-11T14:13:11.658Z,66
2023-04-11T14:14:16.782Z,66
2023-04-11T14:15:23.860Z,66
2023-04-11T14:16:30.514Z,66
2023-04-11T14:17:37.554Z,66
2023-04-11T14:18:45.006Z,66
2023-04-11T14:19:51.770Z,66
2023-04-11T14:20:58.881Z,66
2023-04-11T14:22:05.433Z,66
2023-04-11T14:23:12.571Z,66
2023-04-11T14:24:19.678Z,66
2023-04-11T14:25:26.791Z,66
2023-04-11T14:26:33.839Z,66
2023-04-11T14:27:40.449Z,66
2023-04-11T14:28:48.121Z,66
2023-04-11T14:29:54.758Z,66
2023-04-11T14:32:08.977Z,66
2023-04-11T14:33:15.492Z,66
2023-04-11T14:34:22.574Z,65
2023-04-11T14:35:29.702Z,65
2023-04-11T14:36:36.836Z,65
2023-04-11T14:37:43.894Z,65
2023-04-11T14:38:50.457Z,65
2023-04-11T14:39:57.616Z,65
2023-04-11T14:41:04.714Z,65
2023-04-11T14:42:11.827Z,65
2023-04-11T14:43:18.919Z,65
2023-04-11T14:44:26.018Z,64
2023-04-11T14:45:32.590Z,64
2023-04-11T14:46:39.760Z,64
2023-04-11T14:47:46.897Z,64
2023-04-11T14:48:53.398Z,64
2023-04-11T14:50:00.495Z,64
2023-04-11T14:51:07.667Z,64
2023-04-11T14:52:14.711Z,64
2023-04-11T14:53:21.772Z,64
2023-04-11T14:54:28.953Z,64
2023-04-11T14:55:35.523Z,64
2023-04-11T14:56:42.566Z,64
2023-04-11T14:57:49.770Z,65
2023-04-11T14:58:56.807Z,65
2023-04-11T15:00:03.941Z,65
2023-04-11T15:01:10.553Z,64
2023-04-11T15:02:17.753Z,64
2023-04-11T15:03:24.944Z,64
2023-04-11T15:04:31.819Z,64
2023-04-11T15:05:38.410Z,64
2023-04-11T15:06:45.583Z,64
2023-04-11T15:07:52.618Z,64
2023-04-11T15:08:59.742Z,63
2023-04-11T15:10:06.804Z,63
2023-04-11T15:11:13.605Z,63
2023-04-11T15:12:20.461Z,63
2023-04-11T15:13:27.660Z,63
2023-04-11T15:14:34.702Z,63
2023-04-11T15:15:41.982Z,63
2023-04-11T15:16:48.453Z,63
2023-04-11T15:17:55.657Z,63
2023-04-11T15:19:02.620Z,62
2023-04-11T15:21:16.862Z,62
2023-04-11T15:22:23.395Z,62
2023-04-11T15:23:30.500Z,62
2023-04-11T15:24:37.646Z,62
2023-04-11T15:25:44.825Z,62
2023-04-11T15:26:51.848Z,62
2023-04-11T15:27:58.547Z,62
2023-04-11T15:29:05.504Z,62
2023-04-11T15:30:12.698Z,62
2023-04-11T15:31:19.800Z,62
2023-04-11T15:32:26.900Z,62
2023-04-11T15:33:33.413Z,62
2023-04-11T15:35:47.907Z,62
2023-04-11T15:36:59.499Z,62
2023-04-11T15:38:01.846Z,61
2023-04-11T15:39:08.434Z,61
2023-04-11T15:40:15.625Z,61
2023-04-11T15:41:24.736Z,62
2023-04-11T15:42:29.745Z,62
2023-04-11T15:43:36.929Z,61
2023-04-11T15:44:43.413Z,62
2023-04-11T15:45:50.536Z,62
2023-04-11T15:46:57.731Z,62
2023-04-11T15:48:04.896Z,62
2023-04-11T15:49:11.821Z,62
2023-04-11T15:50:18.556Z,62
2023-04-11T15:51:25.588Z,62
2023-04-11T15:52:32.676Z,62
2023-04-11T15:53:40.332Z,62
2023-04-11T15:54:46.935Z,61
2023-04-11T15:55:53.454Z,62
2023-04-11T15:57:01.115Z,62
2023-04-11T15:58:07.685Z,62
2023-04-11T15:59:14.778Z,62
2023-04-11T16:00:21.978Z,62
2023-04-11T16:01:28.500Z,62
2023-04-11T16:02:35.809Z,62
2023-04-11T16:03:42.853Z,62
2023-04-11T16:04:51.966Z,62
2023-04-11T16:05:57.051Z,62
2023-04-11T16:07:03.495Z,62
2023-04-11T16:08:10.573Z,62
2023-04-11T16:09:17.692Z,62
2023-04-11T16:10:25.091Z,62
2023-04-11T16:11:31.850Z,62
2023-04-11T16:12:38.518Z,62
2023-04-11T16:13:50.144Z,62
2023-04-11T16:14:52.704Z,61
2023-04-11T16:15:59.947Z,61
2023-04-11T16:17:06.467Z,61
2023-04-11T16:18:13.538Z,61
2023-04-11T16:19:20.588Z,61
2023-04-11T16:20:27.695Z,61
2023-04-11T16:21:34.793Z,61
2023-04-11T16:22:41.929Z,62
2023-04-11T16:23:48.492Z,62
2023-04-11T16:24:55.592Z,61
2023-04-11T16:26:02.720Z,61
2023-04-11T16:27:09.975Z,61
2023-04-11T16:28:16.449Z,61
2023-04-11T16:29:23.529Z,61
2023-04-11T16:30:30.697Z,61
2023-04-11T16:31:37.880Z,61
2023-04-11T16:32:45.041Z,61
2023-04-11T16:33:52.065Z,61
2023-04-11T16:34:58.692Z,61
2023-04-11T16:36:05.828Z,61
2023-04-11T16:37:12.887Z,60
2023-04-11T16:39:26.471Z,60
2023-04-11T16:40:33.552Z,60